Time;durP1;ratioP1;P1;durP2;ratioP2;P2;SDS_P1;SDS_P2;PMS_P1;PMS_P2;Temp;Humidity;BMP_temperature;BMP_pressure;BME280_temperature;BME280_humidity;BME280_pressure;Samples;Min_cycle;Max_cycle;Signal;HPM_P1;HPM_P2
2023/07/01 00:01:23;;;;;;;3.00;2.27;;;17.60;99.90;;;;;;5052913;28;20182;-73
2023/07/01 00:03:49;;;;;;;2.73;2.53;;;17.60;99.90;;;;;;5052999;28;20628;-73
2023/07/01 00:06:15;;;;;;;2.60;2.40;;;17.60;99.90;;;;;;5052577;28;20186;-74
2023/07/01 00:08:41;;;;;;;3.13;2.83;;;17.60;99.90;;;;;;5052764;28;20650;-74
2023/07/01 00:11:07;;;;;;;4.23;2.37;;;17.70;99.90;;;;;;5052491;28;20200;-74
2023/07/01 00:13:33;;;;;;;2.00;1.80;;;17.60;99.90;;;;;;5053576;28;20458;-74
2023/07/01 00:15:59;;;;;;;3.00;2.50;;;17.70;99.90;;;;;;5052475;28;20409;-74
2023/07/01 00:18:26;;;;;;;2.60;2.20;;;17.70;99.90;;;;;;5051686;28;20440;-74
2023/07/01 00:20:52;;;;;;;2.40;2.20;;;17.70;99.90;;;;;;5053021;28;20539;-74
2023/07/01 00:23:17;;;;;;;2.70;2.30;;;17.70;99.90;;;;;;5053770;28;20452;-74
2023/07/01 00:25:43;;;;;;;3.23;2.27;;;17.70;99.90;;;;;;5056588;28;20280;-73
2023/07/01 00:28:08;;;;;;;2.70;2.33;;;17.70;99.90;;;;;;5057543;28;20194;-73
2023/07/01 00:30:34;;;;;;;4.47;2.20;;;17.70;99.90;;;;;;5056082;28;20202;-73
2023/07/01 00:33:00;;;;;;;2.53;2.33;;;17.70;99.90;;;;;;5057672;28;20162;-74
2023/07/01 00:35:26;;;;;;;3.50;2.07;;;17.70;99.90;;;;;;5056676;28;20182;-74
2023/07/01 00:37:51;;;;;;;2.27;1.83;;;17.80;99.90;;;;;;5056692;28;21125;-74
2023/07/01 00:40:17;;;;;;;2.60;2.30;;;17.70;99.90;;;;;;5056508;28;20194;-73
2023/07/01 00:42:43;;;;;;;2.80;2.40;;;17.80;99.90;;;;;;5057409;28;20197;-73
2023/07/01 00:45:09;;;;;;;2.47;2.27;;;17.70;99.90;;;;;;5055604;28;20170;-74
2023/07/01 00:47:34;;;;;;;5.20;2.83;;;17.70;99.90;;;;;;5057344;28;20432;-73
2023/07/01 00:50:00;;;;;;;2.40;2.20;;;17.80;99.90;;;;;;5057173;28;20159;-74
2023/07/01 00:52:26;;;;;;;2.63;2.33;;;17.70;99.90;;;;;;5057371;28;20182;-73
2023/07/01 00:54:52;;;;;;;2.80;2.60;;;17.80;99.90;;;;;;5056932;28;20397;-73
2023/07/01 00:57:17;;;;;;;3.93;2.70;;;17.80;99.90;;;;;;5056621;28;20226;-74
2023/07/01 00:59:43;;;;;;;2.50;2.30;;;17.70;99.90;;;;;;5055897;28;20634;-73
2023/07/01 01:02:20;;;;;;;2.50;2.27;;;17.70;99.90;;;;;;5056893;28;20198;-73
2023/07/01 01:05:02;;;;;;;2.60;1.83;;;17.70;99.90;;;;;;5056590;28;20167;-73
2023/07/01 01:07:56;;;;;;;3.90;2.47;;;17.70;99.90;;;;;;5056314;28;20595;-73
2023/07/01 01:10:23;;;;;;;7.83;2.10;;;17.80;99.90;;;;;;5056699;28;20406;-73
2023/07/01 01:12:56;;;;;;;3.40;1.90;;;17.80;99.90;;;;;;5056474;28;20485;-73
2023/07/01 01:15:23;;;;;;;2.80;2.60;;;17.70;99.90;;;;;;5056567;28;20917;-73
2023/07/01 01:17:51;;;;;;;2.83;2.57;;;17.70;99.90;;;;;;5056374;28;20490;-74
2023/07/01 01:20:20;;;;;;;3.00;2.23;;;17.80;99.90;;;;;;5054619;28;20411;-73
2023/07/01 01:23:01;;;;;;;2.90;1.97;;;17.80;99.90;;;;;;5055956;28;20402;-73
2023/07/01 01:25:52;;;;;;;2.53;2.17;;;17.80;99.90;;;;;;5055987;28;20492;-73
2023/07/01 01:28:18;;;;;;;3.60;2.60;;;17.70;99.90;;;;;;5055064;28;20532;-73
2023/07/01 01:30:43;;;;;;;2.97;2.30;;;17.80;99.90;;;;;;5056575;28;20432;-73
2023/07/01 01:33:09;;;;;;;3.10;2.20;;;17.80;99.90;;;;;;5055916;28;20167;-73
2023/07/01 01:35:34;;;;;;;4.07;2.63;;;17.80;99.90;;;;;;5054877;28;20230;-74
2023/07/01 01:38:22;;;;;;;2.80;2.40;;;17.70;99.90;;;;;;5055780;28;20724;-73
2023/07/01 01:40:58;;;;;;;2.80;2.23;;;17.80;99.90;;;;;;5055303;28;20183;-74
2023/07/01 01:43:26;;;;;;;8.53;2.70;;;17.70;99.90;;;;;;5055141;28;20429;-74
2023/07/01 01:45:53;;;;;;;3.10;1.90;;;17.80;99.90;;;;;;5055539;28;20556;-72
2023/07/01 01:48:18;;;;;;;5.00;2.10;;;17.80;99.90;;;;;;5055592;28;20432;-74
2023/07/01 01:50:49;;;;;;;2.67;2.47;;;17.70;99.90;;;;;;5055401;28;20410;-74
2023/07/01 01:53:15;;;;;;;3.00;1.97;;;17.70;99.90;;;;;;5055143;28;20213;-74
2023/07/01 01:55:41;;;;;;;4.43;2.20;;;17.70;99.90;;;;;;5055000;28;20459;-74
2023/07/01 01:58:07;;;;;;;2.30;1.83;;;17.60;99.90;;;;;;5055425;28;20421;-74
2023/07/01 02:00:34;;;;;;;2.47;2.13;;;17.60;99.90;;;;;;5055872;28;20409;-74
2023/07/01 02:03:00;;;;;;;3.00;2.13;;;17.60;99.90;;;;;;5055558;28;20170;-74
2023/07/01 02:05:25;;;;;;;5.37;1.80;;;17.50;99.90;;;;;;5055582;28;20801;-73
2023/07/01 02:07:51;;;;;;;2.27;1.80;;;17.60;99.90;;;;;;5056242;28;20503;-74
2023/07/01 02:10:19;;;;;;;2.10;1.90;;;17.60;99.90;;;;;;5055411;28;20530;-73
2023/07/01 02:12:44;;;;;;;2.30;2.10;;;17.60;99.90;;;;;;5055387;28;20239;-74
2023/07/01 02:15:10;;;;;;;3.40;2.70;;;17.50;99.90;;;;;;5054719;28;20425;-74
2023/07/01 02:17:35;;;;;;;3.10;1.90;;;17.50;99.90;;;;;;5055240;28;20218;-74
2023/07/01 02:20:01;;;;;;;3.03;2.20;;;17.50;99.90;;;;;;5054933;28;20194;-74
2023/07/01 02:22:26;;;;;;;2.20;2.00;;;17.50;99.90;;;;;;5054838;28;20163;-74
2023/07/01 02:24:52;;;;;;;2.33;2.10;;;17.60;99.90;;;;;;5054900;28;20190;-74
2023/07/01 02:27:19;;;;;;;2.53;2.13;;;17.60;99.90;;;;;;5054092;28;21047;-75
2023/07/01 02:29:44;;;;;;;5.57;2.53;;;17.50;99.90;;;;;;5054163;28;20509;-74
2023/07/01 02:32:10;;;;;;;2.87;2.10;;;17.60;99.90;;;;;;5053967;28;20404;-74
2023/07/01 02:34:35;;;;;;;2.57;2.00;;;17.70;99.90;;;;;;5054016;28;20168;-74
2023/07/01 02:37:01;;;;;;;2.20;2.00;;;17.70;99.90;;;;;;5053166;28;20183;-73
2023/07/01 02:39:26;;;;;;;2.53;2.03;;;17.70;99.90;;;;;;5053720;28;20167;-74
2023/07/01 02:41:52;;;;;;;12.00;10.70;;;17.80;99.90;;;;;;5053711;28;20250;-74
2023/07/01 02:44:17;;;;;;;4.07;2.83;;;17.80;99.90;;;;;;5053829;28;20162;-74
2023/07/01 02:46:43;;;;;;;2.60;1.80;;;17.70;99.90;;;;;;5053255;28;20203;-73
2023/07/01 02:49:09;;;;;;;2.40;2.20;;;17.80;99.90;;;;;;5054047;28;20167;-74
2023/07/01 02:51:34;;;;;;;8.03;1.80;;;17.90;99.90;;;;;;5054103;28;20163;-74
2023/07/01 02:54:00;;;;;;;3.40;2.40;;;17.90;99.90;;;;;;5054049;28;20162;-74
2023/07/01 02:56:25;;;;;;;10.63;3.90;;;17.90;99.90;;;;;;5052861;28;20190;-73
2023/07/01 02:58:51;;;;;;;2.73;2.37;;;17.90;99.90;;;;;;5053386;28;20174;-74
2023/07/01 03:01:16;;;;;;;3.63;2.30;;;17.90;99.90;;;;;;5053795;28;20198;-74
2023/07/01 03:03:42;;;;;;;2.03;1.70;;;17.80;99.90;;;;;;5053668;28;20583;-73
2023/07/01 03:06:09;;;;;;;2.73;1.93;;;17.90;99.90;;;;;;5053323;28;20215;-74
2023/07/01 03:08:35;;;;;;;3.00;2.50;;;17.90;99.90;;;;;;5053589;28;20167;-74
2023/07/01 03:11:01;;;;;;;2.60;2.20;;;17.90;99.90;;;;;;5053324;28;20401;-73
2023/07/01 03:13:26;;;;;;;2.07;1.87;;;17.90;99.90;;;;;;5053660;28;20385;-74
2023/07/01 03:15:52;;;;;;;1.83;1.73;;;17.90;99.90;;;;;;5053291;28;20534;-74
2023/07/01 03:18:17;;;;;;;3.50;2.13;;;18.00;99.90;;;;;;5053695;28;20190;-74
2023/07/01 03:20:43;;;;;;;2.57;1.83;;;17.90;99.90;;;;;;5053580;28;20166;-76
2023/07/01 03:23:08;;;;;;;2.87;2.57;;;17.90;99.90;;;;;;5053286;28;20170;-74
2023/07/01 03:25:35;;;;;;;3.07;2.70;;;17.90;99.90;;;;;;5053252;28;20634;-74
2023/07/01 03:28:01;;;;;;;2.10;1.90;;;17.90;99.90;;;;;;5053875;28;20183;-74
2023/07/01 03:30:30;;;;;;;1.97;1.80;;;17.90;99.90;;;;;;5053499;28;20455;-74
2023/07/01 03:32:56;;;;;;;2.20;2.03;;;17.90;99.90;;;;;;5053351;28;20167;-75
2023/07/01 03:35:22;;;;;;;3.60;2.00;;;17.90;99.90;;;;;;5052957;28;20459;-74
2023/07/01 03:37:47;;;;;;;2.93;2.00;;;18.00;99.90;;;;;;5053036;28;20195;-74
2023/07/01 03:40:13;;;;;;;3.20;1.97;;;17.90;99.90;;;;;;5051660;28;20991;-73
2023/07/01 03:42:42;;;;;;;2.57;2.37;;;18.00;99.90;;;;;;5052859;28;20179;-73
2023/07/01 03:45:10;;;;;;;1.73;1.63;;;18.00;99.90;;;;;;5052566;28;20187;-74
2023/07/01 03:47:43;;;;;;;2.23;2.03;;;18.10;99.90;;;;;;5051170;28;20560;-74
2023/07/01 03:50:10;;;;;;;2.20;1.80;;;18.10;99.90;;;;;;5051299;28;20500;-74
2023/07/01 03:52:39;;;;;;;2.60;2.40;;;18.10;99.90;;;;;;5052521;28;20933;-74
2023/07/01 03:55:07;;;;;;;1.80;1.70;;;18.10;99.90;;;;;;5052230;28;20405;-73
2023/07/01 03:57:34;;;;;;;2.37;2.17;;;18.10;99.90;;;;;;5053580;28;20463;-74
2023/07/01 04:00:01;;;;;;;2.50;2.30;;;18.10;99.90;;;;;;5056983;28;20826;-74
2023/07/01 04:02:26;;;;;;;1.73;1.63;;;18.10;99.90;;;;;;5056781;28;20420;-73
2023/07/01 04:04:52;;;;;;;2.20;2.00;;;18.20;99.90;;;;;;5056786;28;20505;-75
2023/07/01 04:07:21;;;;;;;2.20;1.93;;;18.10;99.90;;;;;;5057058;28;20221;-74
2023/07/01 04:09:49;;;;;;;3.57;2.33;;;18.10;99.90;;;;;;5056952;28;20163;-74
2023/07/01 04:12:15;;;;;;;3.60;2.70;;;18.10;99.90;;;;;;5056767;28;20397;-74
2023/07/01 04:14:41;;;;;;;1.90;1.60;;;18.10;99.90;;;;;;5055722;28;20435;-74
2023/07/01 04:17:06;;;;;;;2.83;1.87;;;18.00;99.90;;;;;;5056717;28;20429;-74
2023/07/01 04:19:32;;;;;;;2.47;2.13;;;18.10;99.90;;;;;;5056807;28;20179;-75
2023/07/01 04:21:57;;;;;;;2.20;2.00;;;18.10;99.90;;;;;;5057122;28;20640;-73
2023/07/01 04:24:23;;;;;;;4.70;2.10;;;18.10;99.90;;;;;;5055957;28;20174;-74
2023/07/01 04:26:49;;;;;;;2.17;1.97;;;18.10;99.90;;;;;;5056334;28;20202;-75
2023/07/01 04:29:14;;;;;;;1.90;1.80;;;18.10;99.90;;;;;;5056118;28;20179;-74
2023/07/01 04:31:40;;;;;;;4.23;2.10;;;18.20;99.90;;;;;;5056539;28;20246;-75
2023/07/01 04:34:05;;;;;;;3.57;1.53;;;18.10;99.90;;;;;;5056405;28;20731;-75
2023/07/01 04:36:31;;;;;;;1.97;1.83;;;18.10;99.90;;;;;;5054763;28;20666;-74
2023/07/01 04:38:56;;;;;;;5.00;1.93;;;18.20;99.90;;;;;;5056377;28;20572;-74
2023/07/01 04:41:22;;;;;;;1.70;1.60;;;18.10;99.90;;;;;;5056620;28;20174;-74
2023/07/01 04:43:47;;;;;;;1.93;1.83;;;18.20;99.90;;;;;;5056439;28;20177;-74
2023/07/01 04:46:13;;;;;;;2.43;1.90;;;18.30;99.90;;;;;;5056172;28;20579;-74
2023/07/01 04:48:38;;;;;;;3.40;1.87;;;18.30;99.90;;;;;;5056142;28;20159;-73
2023/07/01 04:51:04;;;;;;;2.23;1.70;;;18.40;99.90;;;;;;5056024;28;20206;-73
2023/07/01 04:53:29;;;;;;;3.57;2.30;;;18.30;99.90;;;;;;5056057;28;20425;-74
2023/07/01 04:55:55;;;;;;;3.20;2.07;;;18.40;99.90;;;;;;5056346;28;20182;-74
2023/07/01 04:58:21;;;;;;;11.23;7.10;;;18.50;99.90;;;;;;5056443;28;20210;-73
2023/07/01 05:00:46;;;;;;;3.53;2.30;;;18.70;99.90;;;;;;5056154;28;20242;-75
2023/07/01 05:03:12;;;;;;;3.03;2.07;;;18.70;99.90;;;;;;5056120;28;20163;-74
2023/07/01 05:05:37;;;;;;;2.90;2.37;;;18.90;99.90;;;;;;5055621;28;20739;-74
2023/07/01 05:08:03;;;;;;;2.60;1.93;;;19.00;99.90;;;;;;5055061;28;20206;-74
2023/07/01 05:10:29;;;;;;;2.67;2.30;;;19.00;99.90;;;;;;5055369;28;20574;-75
2023/07/01 05:12:54;;;;;;;2.83;2.40;;;19.10;99.90;;;;;;5055382;28;20163;-74
2023/07/01 05:15:20;;;;;;;2.40;2.03;;;19.20;99.90;;;;;;5055164;28;20178;-74
2023/07/01 05:17:45;;;;;;;2.97;2.43;;;19.30;99.90;;;;;;5054267;28;20186;-75
2023/07/01 05:20:12;;;;;;;3.80;1.90;;;19.30;99.90;;;;;;5055329;28;20173;-73
2023/07/01 05:22:37;;;;;;;4.63;2.03;;;19.30;99.90;;;;;;5055784;28;20191;-73
2023/07/01 05:25:04;;;;;;;1.83;1.73;;;19.50;99.90;;;;;;5054941;28;20918;-74
2023/07/01 05:27:30;;;;;;;2.00;1.67;;;19.50;99.90;;;;;;5055242;28;20695;-73
2023/07/01 05:29:56;;;;;;;2.80;2.10;;;19.40;99.90;;;;;;5055530;28;20405;-74
2023/07/01 05:32:22;;;;;;;2.47;1.90;;;19.60;99.90;;;;;;5053966;28;20787;-74
2023/07/01 05:34:47;;;;;;;2.83;2.30;;;19.60;99.90;;;;;;5055061;28;20408;-73
2023/07/01 05:37:13;;;;;;;2.77;1.77;;;19.70;99.90;;;;;;5054646;28;20742;-73
2023/07/01 05:39:39;;;;;;;9.43;2.20;;;19.70;99.90;;;;;;5054012;28;20189;-71
2023/07/01 05:42:05;;;;;;;2.90;2.20;;;19.70;99.90;;;;;;5054076;28;20527;-71
2023/07/01 05:44:30;;;;;;;1.70;1.60;;;19.70;99.90;;;;;;5054027;28;20163;-71
2023/07/01 05:46:56;;;;;;;3.20;2.10;;;19.80;99.90;;;;;;5053571;28;20445;-71
2023/07/01 05:49:22;;;;;;;5.73;1.77;;;19.80;99.90;;;;;;5053920;28;20198;-70
2023/07/01 05:51:48;;;;;;;3.00;2.30;;;19.90;99.90;;;;;;5053887;28;20163;-71
2023/07/01 05:54:13;;;;;;;3.23;1.97;;;19.70;99.90;;;;;;5053885;28;20217;-70
2023/07/01 05:56:39;;;;;;;2.83;2.30;;;19.70;99.90;;;;;;5053416;28;20565;-71
2023/07/01 05:59:04;;;;;;;2.40;1.87;;;19.80;99.90;;;;;;5053836;28;20163;-71
2023/07/01 06:01:30;;;;;;;3.73;2.43;;;19.80;99.90;;;;;;5053704;28;20178;-72
2023/07/01 06:03:56;;;;;;;5.70;1.70;;;19.80;99.90;;;;;;5053755;28;20163;-71
2023/07/01 06:06:21;;;;;;;2.53;1.80;;;19.80;99.90;;;;;;5053037;28;20191;-71
2023/07/01 06:08:48;;;;;;;3.67;2.10;;;19.80;99.90;;;;;;5053640;28;20246;-68
2023/07/01 06:11:14;;;;;;;3.50;2.83;;;19.80;99.90;;;;;;5054595;28;20167;-69
2023/07/01 06:13:46;;;;;;;2.70;2.23;;;19.80;99.90;;;;;;5054530;28;20449;-68
2023/07/01 06:16:16;;;;;;;2.33;2.10;;;19.80;99.90;;;;;;5053294;28;20400;-67
2023/07/01 06:18:42;;;;;;;5.20;2.10;;;19.80;99.90;;;;;;5053577;28;20401;-71
2023/07/01 06:21:09;;;;;;;3.97;1.90;;;19.90;99.90;;;;;;5053208;28;20417;-73
2023/07/01 06:23:38;;;;;;;2.10;1.80;;;19.80;99.90;;;;;;5054684;28;20405;-72
2023/07/01 06:26:04;;;;;;;3.93;2.13;;;19.80;99.90;;;;;;5052943;28;20448;-69
2023/07/01 06:28:30;;;;;;;3.20;1.80;;;19.80;99.90;;;;;;5053255;28;20408;-71
2023/07/01 06:30:55;;;;;;;8.40;2.17;;;19.80;99.90;;;;;;5053178;28;20398;-72
2023/07/01 06:33:21;;;;;;;2.50;2.30;;;19.80;99.90;;;;;;5053251;28;20159;-71
2023/07/01 06:35:47;;;;;;;3.30;1.93;;;19.90;99.90;;;;;;5052840;28;20167;-72
2023/07/01 06:38:12;;;;;;;1.77;1.67;;;20.00;99.90;;;;;;5052963;28;20187;-72
2023/07/01 06:40:38;;;;;;;2.77;1.60;;;20.10;99.90;;;;;;5053483;28;20171;-73
2023/07/01 06:43:03;;;;;;;2.63;2.40;;;20.10;99.90;;;;;;5053396;28;20258;-72
2023/07/01 06:45:30;;;;;;;3.03;1.87;;;20.20;99.90;;;;;;5053107;28;20196;-74
2023/07/01 06:47:56;;;;;;;2.60;2.27;;;20.20;99.90;;;;;;5052784;28;20190;-73
2023/07/01 06:50:21;;;;;;;2.27;2.07;;;20.00;99.90;;;;;;5052828;28;20405;-72
2023/07/01 06:52:47;;;;;;;2.70;1.70;;;20.00;99.90;;;;;;5052839;28;20175;-73
2023/07/01 06:55:15;;;;;;;2.00;1.70;;;19.90;99.90;;;;;;5052853;28;20661;-72
2023/07/01 06:57:44;;;;;;;2.27;2.07;;;19.90;99.90;;;;;;5052928;28;20270;-74
2023/07/01 07:00:12;;;;;;;4.03;2.70;;;19.90;99.90;;;;;;5052737;28;20406;-71
2023/07/01 07:02:38;;;;;;;3.20;2.30;;;19.70;99.90;;;;;;5052695;28;20413;-71
2023/07/01 07:05:05;;;;;;;2.73;2.37;;;19.80;99.90;;;;;;5052244;28;20409;-72
2023/07/01 07:07:31;;;;;;;6.33;2.40;;;19.80;99.90;;;;;;5050961;28;20476;-72
2023/07/01 07:09:57;;;;;;;3.00;1.93;;;19.90;99.90;;;;;;5052488;28;20398;-72
2023/07/01 07:12:22;;;;;;;2.57;2.33;;;19.80;99.90;;;;;;5052424;28;20409;-72
2023/07/01 07:14:48;;;;;;;1.93;1.80;;;19.90;99.90;;;;;;5052378;28;20202;-72
2023/07/01 07:17:13;;;;;;;2.67;2.47;;;19.80;99.90;;;;;;5052024;28;20547;-73
2023/07/01 07:19:39;;;;;;;6.10;2.63;;;19.90;99.90;;;;;;5052430;28;20166;-73
2023/07/01 07:22:05;;;;;;;4.33;2.47;;;19.90;99.90;;;;;;5052260;28;20187;-72
2023/07/01 07:24:31;;;;;;;3.60;2.30;;;20.10;99.90;;;;;;5052308;28;20518;-73
2023/07/01 07:27:00;;;;;;;3.23;2.03;;;20.30;99.90;;;;;;5051875;28;20519;-72
2023/07/01 07:29:26;;;;;;;2.60;1.80;;;20.40;99.90;;;;;;5052316;28;20216;-74
2023/07/01 07:31:51;;;;;;;3.93;2.20;;;20.50;99.90;;;;;;5052331;28;20401;-72
2023/07/01 07:34:17;;;;;;;6.60;2.37;;;20.40;99.90;;;;;;5052030;28;20943;-74
2023/07/01 07:36:43;;;;;;;2.60;2.00;;;20.30;99.90;;;;;;5051782;28;20206;-72
2023/07/01 07:39:13;;;;;;;3.00;1.77;;;20.30;99.90;;;;;;5052011;28;20171;-71
2023/07/01 07:41:39;;;;;;;6.93;2.00;;;20.30;99.90;;;;;;5052058;28;20420;-72
2023/07/01 07:44:05;;;;;;;4.27;1.90;;;20.30;99.90;;;;;;5051959;28;20580;-72
2023/07/01 07:46:31;;;;;;;3.67;1.70;;;20.50;99.90;;;;;;5051488;28;20548;-74
2023/07/01 07:48:57;;;;;;;2.00;1.90;;;20.40;99.90;;;;;;5051862;28;20178;-72
2023/07/01 07:51:22;;;;;;;2.67;1.90;;;20.30;99.90;;;;;;5052016;28;20398;-71
2023/07/01 07:53:48;;;;;;;2.77;1.90;;;20.30;99.90;;;;;;5051744;28;20171;-72
2023/07/01 07:56:13;;;;;;;5.97;2.23;;;20.30;99.90;;;;;;5051575;28;20174;-74
2023/07/01 07:58:39;;;;;;;3.40;1.73;;;20.30;99.90;;;;;;5051807;28;20212;-73
2023/07/01 08:01:04;;;;;;;5.67;2.30;;;20.10;99.90;;;;;;5051809;28;20183;-69
2023/07/01 08:03:30;;;;;;;1.70;1.60;;;20.00;99.90;;;;;;5051787;28;20167;-72
2023/07/01 08:05:55;;;;;;;1.57;1.27;;;20.00;99.90;;;;;;5051628;28;20199;-73
2023/07/01 08:08:21;;;;;;;1.73;1.33;;;20.00;99.90;;;;;;5052109;28;20622;-72
2023/07/01 08:10:47;;;;;;;2.30;1.67;;;19.90;99.90;;;;;;5052018;28;20171;-73
2023/07/01 08:13:13;;;;;;;2.43;1.40;;;19.80;99.90;;;;;;5052071;28;20174;-73
2023/07/01 08:15:39;;;;;;;1.90;1.60;;;19.60;99.90;;;;;;5051496;28;20166;-74
2023/07/01 08:18:04;;;;;;;1.60;1.50;;;19.50;99.90;;;;;;5051946;28;20840;-74
2023/07/01 08:20:30;;;;;;;2.53;1.63;;;19.60;99.90;;;;;;5051912;28;20505;-71
2023/07/01 08:22:55;;;;;;;1.97;1.80;;;19.60;99.90;;;;;;5051769;28;20190;-73
2023/07/01 08:25:21;;;;;;;3.00;1.60;;;19.60;99.90;;;;;;5051490;28;20248;-71
2023/07/01 08:27:46;;;;;;;1.70;1.37;;;19.50;99.90;;;;;;5051603;28;20563;-73
2023/07/01 08:30:12;;;;;;;1.63;1.53;;;19.40;99.90;;;;;;5052015;28;20167;-73
2023/07/01 08:32:39;;;;;;;2.10;1.20;;;19.50;99.90;;;;;;5051821;28;20163;-74
2023/07/01 08:35:05;;;;;;;2.30;1.73;;;19.60;99.90;;;;;;5051569;28;20177;-73
2023/07/01 08:37:31;;;;;;;1.63;1.37;;;19.70;99.90;;;;;;5050396;28;20827;-73
2023/07/01 08:39:56;;;;;;;3.23;1.97;;;19.70;99.90;;;;;;5051629;28;20456;-73
2023/07/01 08:42:51;;;;;;;2.27;1.73;;;19.80;99.90;;;;;;5051717;28;20232;-74
2023/07/01 08:45:21;;;;;;;3.00;1.50;;;20.00;99.90;;;;;;5053858;28;20233;-72
2023/07/01 08:47:48;;;;;;;1.50;1.40;;;20.00;99.90;;;;;;5054056;28;20457;-74
2023/07/01 08:50:19;;;;;;;1.60;1.40;;;20.20;99.90;;;;;;5055363;28;20476;-73
2023/07/01 08:52:59;;;;;;;3.97;1.50;;;20.10;99.90;;;;;;5055361;28;20867;-74
2023/07/01 08:55:25;;;;;;;2.87;1.43;;;20.20;99.90;;;;;;5054868;28;20492;-74
2023/07/01 08:57:50;;;;;;;4.43;1.90;;;20.40;99.90;;;;;;5054997;28;20496;-73
2023/07/01 09:00:16;;;;;;;1.60;1.40;;;20.50;99.90;;;;;;5055128;28;20221;-72
2023/07/01 09:02:42;;;;;;;2.27;1.20;;;20.80;99.90;;;;;;5055105;28;20163;-73
2023/07/01 09:05:08;;;;;;;1.20;1.10;;;21.10;99.90;;;;;;5054835;28;20191;-71
2023/07/01 09:07:34;;;;;;;7.80;1.10;;;21.20;99.90;;;;;;5054536;28;20495;-72
2023/07/01 09:10:03;;;;;;;2.50;1.10;;;21.20;99.90;;;;;;5054700;28;20970;-73
2023/07/01 09:12:29;;;;;;;1.37;0.97;;;21.30;99.90;;;;;;5054923;28;20167;-76
2023/07/01 09:15:03;;;;;;;1.50;1.40;;;21.40;99.90;;;;;;5054422;28;20474;-73
2023/07/01 09:17:30;;;;;;;1.70;1.60;;;21.40;99.90;;;;;;5054575;28;20428;-72
2023/07/01 09:19:58;;;;;;;1.97;1.50;;;21.20;99.90;;;;;;5054241;28;20409;-72
2023/07/01 09:22:24;;;;;;;1.20;1.10;;;21.10;99.90;;;;;;5054552;28;20844;-68
2023/07/01 09:24:49;;;;;;;1.90;1.17;;;20.90;99.90;;;;;;5054378;28;20438;-69
2023/07/01 09:27:15;;;;;;;1.60;1.17;;;20.90;99.90;;;;;;5054064;28;20285;-70
2023/07/01 09:29:41;;;;;;;1.60;1.37;;;20.70;99.90;;;;;;5054421;28;20163;-70
2023/07/01 09:32:07;;;;;;;1.27;1.00;;;20.30;99.90;;;;;;5054364;28;20274;-70
2023/07/01 09:35:01;;;;;;;1.60;1.30;;;20.20;99.90;;;;;;5054298;28;20405;-69
2023/07/01 09:37:28;;;;;;;1.77;1.40;;;20.20;99.90;;;;;;5054203;28;20483;-70
2023/07/01 09:39:54;;;;;;;1.20;1.10;;;20.40;99.90;;;;;;5054140;28;20480;-70
2023/07/01 09:42:19;;;;;;;1.90;1.73;;;20.50;99.90;;;;;;5054180;28;20492;-72
2023/07/01 09:45:07;;;;;;;3.00;1.27;;;20.50;99.90;;;;;;5054120;28;20213;-72
2023/07/01 09:47:33;;;;;;;1.40;1.30;;;20.60;99.90;;;;;;5053932;28;20252;-70
2023/07/01 09:49:59;;;;;;;1.33;1.17;;;20.70;99.90;;;;;;5054011;28;20891;-71
2023/07/01 09:52:31;;;;;;;2.47;1.37;;;20.90;99.90;;;;;;5053952;28;20825;-70
2023/07/01 09:54:59;;;;;;;2.07;1.23;;;21.00;99.90;;;;;;5052665;28;20410;-70
2023/07/01 09:57:25;;;;;;;1.50;1.40;;;21.00;99.90;;;;;;5053784;28;20516;-70
2023/07/01 09:59:52;;;;;;;1.13;1.00;;;20.80;99.90;;;;;;5053898;28;20505;-75
2023/07/01 10:02:18;;;;;;;1.70;1.40;;;20.60;99.90;;;;;;5054155;28;20903;-74
2023/07/01 10:04:44;;;;;;;1.13;0.97;;;20.60;99.90;;;;;;5052755;28;20413;-75
2023/07/01 10:07:09;;;;;;;1.20;1.10;;;20.70;99.90;;;;;;5051975;28;20760;-74
2023/07/01 10:09:35;;;;;;;1.53;0.83;;;20.90;99.90;;;;;;5053604;28;20482;-75
2023/07/01 10:12:01;;;;;;;1.10;1.00;;;21.00;99.90;;;;;;5053702;28;20202;-75
2023/07/01 10:14:31;;;;;;;1.23;1.00;;;21.00;99.90;;;;;;5053963;28;20155;-77
2023/07/01 10:16:57;;;;;;;2.03;0.97;;;21.10;99.90;;;;;;5053346;28;20509;-76
2023/07/01 10:19:35;;;;;;;1.30;1.00;;;21.00;99.90;;;;;;5053790;28;20440;-75
2023/07/01 10:22:23;;;;;;;1.00;0.80;;;20.90;99.90;;;;;;5053669;28;20467;-74
2023/07/01 10:25:06;;;;;;;3.83;1.10;;;21.00;99.90;;;;;;5053502;28;20415;-77
2023/07/01 10:27:43;;;;;;;1.47;0.90;;;21.00;99.90;;;;;;5052070;28;20468;-75
2023/07/01 10:30:11;;;;;;;1.00;0.90;;;21.10;99.90;;;;;;5053271;28;20416;-75
2023/07/01 10:32:36;;;;;;;2.73;1.40;;;21.30;99.90;;;;;;5053127;28;20423;-75
2023/07/01 10:35:04;;;;;;;1.00;0.90;;;21.60;99.90;;;;;;5052874;28;20484;-74
2023/07/01 10:37:32;;;;;;;1.70;1.17;;;21.40;99.90;;;;;;5053085;28;20664;-74
2023/07/01 10:39:59;;;;;;;1.00;0.77;;;21.30;99.90;;;;;;5052649;28;20409;-74
2023/07/01 10:42:31;;;;;;;1.30;0.90;;;21.60;99.90;;;;;;5051755;28;20449;-75
2023/07/01 10:45:12;;;;;;;2.30;1.10;;;21.70;99.90;;;;;;5052785;28;20415;-76
2023/07/01 10:47:38;;;;;;;2.10;1.70;;;21.90;99.90;;;;;;5052665;28;20456;-78
2023/07/01 10:50:08;;;;;;;1.83;1.30;;;22.00;99.90;;;;;;5052775;28;20409;-76
2023/07/01 10:52:57;;;;;;;2.03;1.10;;;22.10;99.90;;;;;;5052830;28;20411;-76
2023/07/01 10:55:39;;;;;;;2.50;1.40;;;22.00;99.90;;;;;;5052467;28;20405;-76
2023/07/01 10:58:24;;;;;;;2.50;1.00;;;21.90;99.90;;;;;;5052619;28;20417;-76
2023/07/01 11:00:59;;;;;;;1.40;0.97;;;21.90;99.90;;;;;;5049755;28;20750;-76
2023/07/01 11:03:34;;;;;;;1.50;1.00;;;22.00;99.90;;;;;;5052672;28;20764;-76
2023/07/01 11:06:04;;;;;;;2.10;0.80;;;22.20;99.90;;;;;;5051971;28;20483;-75
2023/07/01 11:08:33;;;;;;;1.07;0.83;;;22.30;99.90;;;;;;5052396;28;20428;-75
2023/07/01 11:10:59;;;;;;;1.00;0.87;;;22.50;99.90;;;;;;5052395;28;20405;-75
2023/07/01 11:13:25;;;;;;;1.20;0.70;;;22.40;99.90;;;;;;5052456;28;20394;-75
2023/07/01 11:16:07;;;;;;;1.00;0.70;;;22.30;99.90;;;;;;5052084;28;20397;-75
2023/07/01 11:18:44;;;;;;;1.00;0.70;;;22.20;99.90;;;;;;5052311;28;20432;-75
2023/07/01 11:21:11;;;;;;;1.30;0.70;;;22.00;99.90;;;;;;5052425;28;20405;-75
2023/07/01 11:23:40;;;;;;;0.90;0.60;;;21.90;99.90;;;;;;5051919;28;20405;-75
2023/07/01 11:26:07;;;;;;;1.20;0.83;;;21.70;99.90;;;;;;5051534;28;20552;-74
2023/07/01 11:28:33;;;;;;;0.93;0.77;;;21.60;99.90;;;;;;5052246;28;20412;-73
2023/07/01 11:31:21;;;;;;;0.90;0.63;;;21.40;99.90;;;;;;5052166;28;20405;-74
2023/07/01 11:33:52;;;;;;;1.10;0.80;;;21.30;99.90;;;;;;5052143;28;20400;-74
2023/07/01 11:36:20;;;;;;;1.00;0.80;;;21.10;99.90;;;;;;5051702;28;20416;-75
2023/07/01 11:38:47;;;;;;;1.47;0.70;;;21.10;99.90;;;;;;5052036;28;20401;-75
2023/07/01 11:41:14;;;;;;;0.90;0.60;;;21.20;99.90;;;;;;5051716;28;20405;-73
2023/07/01 11:43:40;;;;;;;1.80;0.67;;;21.10;99.90;;;;;;5051943;28;20429;-74
2023/07/01 11:46:05;;;;;;;1.00;0.80;;;20.90;99.90;;;;;;5051470;28;21004;-73
2023/07/01 11:48:32;;;;;;;4.20;1.00;;;20.90;99.90;;;;;;5052168;28;20586;-73
2023/07/01 11:50:57;;;;;;;1.10;0.80;;;21.00;99.90;;;;;;5052039;28;20190;-74
2023/07/01 11:53:27;;;;;;;1.10;0.90;;;21.00;99.90;;;;;;5051878;28;20456;-74
2023/07/01 11:55:56;;;;;;;1.07;0.83;;;21.20;99.90;;;;;;5050326;28;20166;-74
2023/07/01 11:58:30;;;;;;;2.30;0.80;;;21.30;99.90;;;;;;5051776;28;20448;-74
2023/07/01 12:00:56;;;;;;;1.10;1.00;;;21.40;99.90;;;;;;5052092;28;20439;-74
2023/07/01 12:03:21;;;;;;;1.20;0.90;;;21.50;99.90;;;;;;5051800;28;20433;-73
2023/07/01 12:05:47;;;;;;;1.10;1.00;;;21.60;99.90;;;;;;5051406;28;20170;-74
2023/07/01 12:08:13;;;;;;;1.10;0.90;;;21.90;99.90;;;;;;5051623;28;20683;-74
2023/07/01 12:10:40;;;;;;;1.00;0.80;;;22.10;99.90;;;;;;5051713;28;20638;-75
2023/07/01 12:13:07;;;;;;;3.20;2.60;;;22.20;99.90;;;;;;5051709;28;20410;-73
2023/07/01 12:15:33;;;;;;;1.20;1.10;;;22.20;99.90;;;;;;5051363;28;20405;-74
2023/07/01 12:18:21;;;;;;;1.00;0.70;;;22.40;99.90;;;;;;5051643;28;20466;-74
2023/07/01 12:20:47;;;;;;;1.10;0.90;;;22.50;99.90;;;;;;5055624;28;20167;-74
2023/07/01 12:23:12;;;;;;;1.00;0.83;;;22.70;99.90;;;;;;5055664;28;20470;-74
2023/07/01 12:25:38;;;;;;;1.10;0.80;;;22.80;99.90;;;;;;5055189;28;20564;-74
2023/07/01 12:28:04;;;;;;;1.10;0.73;;;23.00;99.90;;;;;;5055442;28;20403;-74
2023/07/01 12:30:30;;;;;;;4.30;1.00;;;23.20;99.90;;;;;;5054218;28;20544;-74
2023/07/01 12:32:56;;;;;;;1.00;0.80;;;23.20;99.90;;;;;;5055517;28;20433;-74
2023/07/01 12:35:22;;;;;;;1.00;0.87;;;23.30;99.90;;;;;;5055121;28;20917;-75
2023/07/01 12:37:48;;;;;;;1.00;0.90;;;23.10;99.90;;;;;;5055266;28;20194;-74
2023/07/01 12:40:14;;;;;;;0.90;0.80;;;22.90;99.90;;;;;;5055277;28;20174;-74
2023/07/01 12:42:40;;;;;;;1.40;0.87;;;22.70;99.90;;;;;;5055346;28;20401;-69
2023/07/01 12:45:06;;;;;;;1.20;0.80;;;22.70;99.90;;;;;;5055007;28;20170;-73
2023/07/01 12:47:32;;;;;;;3.40;0.97;;;22.60;99.90;;;;;;5052453;28;20471;-72